createdAt,value
2022-12-09T00:00:08.125Z,98.00
2022-12-09T00:02:35.487Z,97.80
2022-12-09T00:05:02.518Z,97.70
2022-12-09T00:07:29.518Z,97.40
2022-12-09T00:09:56.183Z,97.30
2022-12-09T00:12:22.872Z,97.50
2022-12-09T00:14:49.527Z,97.90
2022-12-09T00:17:16.235Z,97.60
2022-12-09T00:19:42.948Z,97.70
2022-12-09T00:22:09.714Z,97.90
2022-12-09T00:24:36.406Z,97.70
2022-12-09T00:27:03.338Z,97.50
2022-12-09T00:29:30.703Z,97.80
2022-12-09T00:31:57.590Z,97.40
2022-12-09T00:34:24.344Z,96.80
2022-12-09T00:36:51.084Z,96.80
2022-12-09T00:39:17.966Z,96.70
2022-12-09T00:41:44.792Z,96.90
2022-12-09T00:44:11.915Z,97.00
2022-12-09T00:46:39.015Z,97.20
2022-12-09T00:49:06.504Z,97.40
2022-12-09T00:51:33.539Z,97.00
2022-12-09T00:54:01.403Z,97.10
2022-12-09T00:56:30.077Z,97.10
2022-12-09T00:58:58.044Z,97.10
2022-12-09T01:01:27.632Z,97.20
2022-12-09T01:03:54.710Z,97.30
2022-12-09T01:06:24.402Z,97.10
2022-12-09T01:08:51.767Z,97.20
2022-12-09T01:11:27.703Z,97.70
2022-12-09T01:13:57.719Z,97.80
2022-12-09T01:16:27.625Z,97.90
2022-12-09T01:18:57.386Z,97.80
2022-12-09T01:21:24.603Z,97.60
2022-12-09T01:23:51.947Z,97.40
2022-12-09T01:26:19.161Z,97.20
2022-12-09T01:28:46.866Z,97.00
2022-12-09T01:31:18.645Z,97.00
2022-12-09T01:33:45.689Z,97.10
2022-12-09T01:36:18.683Z,97.10
2022-12-09T01:38:46.756Z,97.20
2022-12-09T01:41:14.827Z,97.50
2022-12-09T01:43:42.793Z,97.20
2022-12-09T01:46:09.897Z,96.90
2022-12-09T01:48:43.544Z,97.00
2022-12-09T01:51:19.809Z,97.30
2022-12-09T01:53:50.102Z,97.10
2022-12-09T01:56:22.477Z,97.10
2022-12-09T01:58:50.305Z,97.40
2022-12-09T02:01:18.139Z,97.50
2022-12-09T02:03:45.722Z,97.30
2022-12-09T02:06:12.778Z,97.10
2022-12-09T02:08:40.204Z,96.80
2022-12-09T02:11:33.307Z,96.80
2022-12-09T02:14:16.098Z,96.90
2022-12-09T02:17:25.982Z,97.10
2022-12-09T02:20:03.322Z,97.00
2022-12-09T02:22:37.370Z,97.10
2022-12-09T02:25:14.311Z,97.20
2022-12-09T02:28:01.536Z,96.60
2022-12-09T02:30:47.959Z,97.00
2022-12-09T02:33:36.228Z,97.10
2022-12-09T02:36:16.014Z,97.30
2022-12-09T02:38:43.870Z,97.10
2022-12-09T02:41:23.352Z,97.10
2022-12-09T02:44:11.921Z,96.90
2022-12-09T02:46:42.522Z,97.10
2022-12-09T02:49:14.679Z,97.40
2022-12-09T02:51:44.226Z,97.60
2022-12-09T02:54:16.693Z,97.40
2022-12-09T02:57:00.203Z,97.90
2022-12-09T02:59:29.187Z,98.10
2022-12-09T03:02:12.076Z,98.10
2022-12-09T03:04:42.286Z,98.00
2022-12-09T03:07:22.581Z,97.60
2022-12-09T03:09:59.022Z,97.00
2022-12-09T03:12:30.484Z,97.00
2022-12-09T03:14:58.497Z,97.00
2022-12-09T03:17:37.813Z,97.00
2022-12-09T03:20:11.392Z,97.50
2022-12-09T03:22:41.525Z,97.40
2022-12-09T03:25:15.484Z,97.60
2022-12-09T03:27:58.380Z,97.70
2022-12-09T03:30:25.309Z,98.00
2022-12-09T03:32:54.846Z,98.30
2022-12-09T03:35:29.860Z,98.20
2022-12-09T03:37:58.857Z,97.90
2022-12-09T03:40:30.074Z,97.80
2022-12-09T03:43:23.658Z,97.70
2022-12-09T03:45:53.809Z,97.70
2022-12-09T03:48:21.571Z,97.70
2022-12-09T03:51:14.345Z,97.40
2022-12-09T03:53:46.756Z,97.60
2022-12-09T03:56:17.824Z,97.80
2022-12-09T03:58:46.522Z,97.90
2022-12-09T04:01:14.497Z,97.60
2022-12-09T04:03:45.273Z,97.30
2022-12-09T04:06:12.656Z,97.20
2022-12-09T04:08:39.793Z,96.80
2022-12-09T04:11:06.858Z,96.70
2022-12-09T04:13:33.654Z,96.10
2022-12-09T04:16:00.663Z,95.80
2022-12-09T04:18:27.633Z,95.80
2022-12-09T04:20:55.004Z,96.00
2022-12-09T04:23:22.219Z,96.10
2022-12-09T04:25:49.334Z,96.70
2022-12-09T04:28:16.139Z,96.30
2022-12-09T04:30:46.743Z,96.30
2022-12-09T04:33:13.488Z,96.70
2022-12-09T04:35:40.145Z,97.00
2022-12-09T04:38:06.991Z,97.20
2022-12-09T04:40:34.186Z,96.90
2022-12-09T04:43:01.246Z,97.00
2022-12-09T04:45:28.123Z,97.10
2022-12-09T04:47:55.097Z,97.60
2022-12-09T04:50:21.878Z,97.90
2022-12-09T04:52:48.898Z,98.00
2022-12-09T04:55:16.089Z,97.50
2022-12-09T04:57:43.051Z,97.20
2022-12-09T05:00:11.313Z,97.20
2022-12-09T05:02:38.281Z,97.20
2022-12-09T05:05:06.044Z,96.90
2022-12-09T05:07:33.119Z,96.90
2022-12-09T05:10:00.424Z,97.20
2022-12-09T05:12:27.539Z,97.00
2022-12-09T05:14:54.643Z,97.00
2022-12-09T05:17:21.807Z,96.50
2022-12-09T05:19:48.582Z,96.60
2022-12-09T05:22:18.924Z,97.00
2022-12-09T05:24:47.451Z,96.70
2022-12-09T05:27:15.533Z,96.60
2022-12-09T05:29:42.534Z,96.60
2022-12-09T05:32:09.814Z,96.70
2022-12-09T05:34:36.845Z,97.00
2022-12-09T05:37:04.333Z,97.10
2022-12-09T05:39:31.590Z,97.00
2022-12-09T05:41:58.335Z,97.10
2022-12-09T05:44:25.145Z,96.80
2022-12-09T05:46:52.153Z,97.00
2022-12-09T05:49:19.445Z,97.30
2022-12-09T05:51:46.179Z,97.30
2022-12-09T05:54:13.023Z,97.20
2022-12-09T05:56:46.083Z,97.20
2022-12-09T05:59:15.010Z,96.70
2022-12-09T06:01:42.083Z,97.10
2022-12-09T06:04:09.377Z,97.00
2022-12-09T06:06:36.957Z,97.30
2022-12-09T06:09:04.019Z,97.70
2022-12-09T06:11:32.559Z,97.80
2022-12-09T06:14:00.133Z,97.50
2022-12-09T06:16:27.336Z,97.60
2022-12-09T06:18:55.173Z,97.90
2022-12-09T06:21:22.761Z,98.10
2022-12-09T06:23:50.861Z,97.30
2022-12-09T06:26:21.545Z,97.10
2022-12-09T06:28:48.813Z,97.00
2022-12-09T06:31:15.880Z,97.00
2022-12-09T06:33:54.852Z,97.30
2022-12-09T06:36:23.468Z,97.00
2022-12-09T06:38:50.684Z,97.10
2022-12-09T06:41:17.899Z,97.60
2022-12-09T06:43:44.769Z,97.80
2022-12-09T06:46:17.149Z,98.20
2022-12-09T06:48:44.830Z,98.10
2022-12-09T06:51:12.887Z,97.20
2022-12-09T06:53:39.830Z,97.10
2022-12-09T06:56:12.153Z,97.20
2022-12-09T06:58:41.670Z,97.30
2022-12-09T07:01:14.779Z,97.60
2022-12-09T07:03:47.782Z,97.80
2022-12-09T07:06:28.644Z,97.90
2022-12-09T07:08:58.329Z,97.90
2022-12-09T07:11:25.687Z,97.80
2022-12-09T07:13:52.871Z,97.70
2022-12-09T07:16:20.231Z,97.60
2022-12-09T07:18:47.595Z,97.60
2022-12-09T07:21:17.444Z,97.40
2022-12-09T07:23:44.862Z,97.20
2022-12-09T07:26:11.942Z,97.30
2022-12-09T07:28:41.281Z,97.30
2022-12-09T07:31:18.688Z,97.30
2022-12-09T07:33:45.515Z,97.00
2022-12-09T07:36:17.595Z,96.60
2022-12-09T07:38:47.614Z,96.70
2022-12-09T07:41:20.989Z,96.30
2022-12-09T07:43:48.223Z,96.00
2022-12-09T07:46:17.400Z,96.10
2022-12-09T07:48:45.190Z,96.10
2022-12-09T07:51:13.330Z,96.10
2022-12-09T07:53:40.692Z,96.80
2022-12-09T07:56:11.794Z,96.30
2022-12-09T07:58:38.970Z,96.30
2022-12-09T08:01:07.640Z,96.00
2022-12-09T08:03:35.869Z,95.80
2022-12-09T08:06:03.042Z,95.80
2022-12-09T08:08:32.011Z,96.30
2022-12-09T08:11:13.957Z,96.10
2022-12-09T08:13:44.444Z,96.20
2022-12-09T08:16:13.419Z,96.40
2022-12-09T08:18:41.385Z,96.20
2022-12-09T08:21:14.697Z,96.40
2022-12-09T08:23:41.887Z,96.80
2022-12-09T08:26:10.588Z,97.10
2022-12-09T08:28:37.933Z,97.00
2022-12-09T08:31:07.762Z,96.80
2022-12-09T08:33:35.830Z,96.60
2022-12-09T08:36:07.738Z,96.50
2022-12-09T08:38:34.616Z,96.60
2022-12-09T08:41:38.890Z,96.70
2022-12-09T08:44:15.203Z,96.90
2022-12-09T08:46:44.787Z,96.90
2022-12-09T08:49:12.824Z,96.90
2022-12-09T08:51:40.521Z,96.90
2022-12-09T08:54:07.709Z,97.10
2022-12-09T08:56:35.249Z,96.90
2022-12-09T08:59:02.953Z,96.50
2022-12-09T09:01:35.590Z,96.10
2022-12-09T09:04:07.571Z,96.10
2022-12-09T09:06:36.282Z,96.00
2022-12-09T09:09:05.082Z,96.10
2022-12-09T09:11:33.405Z,96.20
2022-12-09T09:14:02.799Z,96.20
2022-12-09T09:16:29.855Z,96.20
2022-12-09T09:18:57.391Z,96.10
2022-12-09T09:21:26.989Z,96.40
2022-12-09T09:23:54.795Z,95.80
2022-12-09T09:26:24.021Z,95.60
2022-12-09T09:28:51.826Z,95.40
2022-12-09T09:31:22.162Z,95.40
2022-12-09T09:33:49.770Z,95.40
2022-12-09T09:36:22.613Z,95.50
2022-12-09T09:38:51.536Z,95.20
2022-12-09T09:41:38.024Z,95.30
2022-12-09T09:44:18.304Z,94.80
2022-12-09T09:46:47.993Z,94.60
2022-12-09T09:49:43.786Z,93.90
2022-12-09T09:52:18.991Z,93.70
2022-12-09T09:54:46.019Z,93.40
2022-12-09T09:57:42.459Z,92.70
2022-12-09T10:00:37.193Z,92.60
2022-12-09T10:03:21.806Z,91.50
2022-12-09T10:05:55.506Z,90.80
2022-12-09T10:08:43.782Z,89.60
2022-12-09T10:11:11.228Z,88.60
2022-12-09T10:13:53.783Z,87.10
2022-12-09T10:16:33.056Z,85.10
2022-12-09T10:19:23.766Z,84.00
2022-12-09T10:21:52.887Z,82.80
2022-12-09T10:24:39.218Z,82.90
2022-12-09T10:27:35.852Z,81.60
2022-12-09T10:30:12.783Z,82.00
2022-12-09T10:32:40.681Z,82.10
2022-12-09T10:35:22.857Z,80.20
2022-12-09T10:37:52.676Z,79.70
2022-12-09T10:40:27.705Z,77.80
2022-12-09T10:43:17.657Z,76.30
2022-12-09T10:46:15.744Z,77.20
2022-12-09T10:48:37.630Z,78.80
2022-12-09T10:51:16.627Z,81.20
2022-12-09T10:54:13.399Z,82.30
2022-12-09T10:57:24.342Z,84.10
2022-12-09T11:00:32.675Z,85.10
2022-12-09T11:03:01.635Z,85.20
2022-12-09T11:05:33.692Z,85.50
2022-12-09T11:08:00.990Z,85.70
2022-12-09T11:10:30.158Z,86.10
2022-12-09T11:13:05.443Z,86.20
2022-12-09T11:15:40.536Z,85.60
2022-12-09T11:18:17.634Z,85.80
2022-12-09T11:20:58.783Z,85.60
2022-12-09T11:23:26.264Z,86.40
2022-12-09T11:25:59.563Z,86.40
2022-12-09T11:28:32.812Z,86.70
2022-12-09T11:31:28.329Z,87.20
2022-12-09T11:34:01.312Z,87.00
2022-12-09T11:36:42.228Z,86.80
2022-12-09T11:39:28.330Z,86.70
2022-12-09T11:42:17.894Z,86.80
2022-12-09T11:44:51.281Z,87.70
2022-12-09T11:47:40.073Z,88.20
2022-12-09T11:50:18.614Z,88.50
2022-12-09T11:52:46.408Z,89.10
2022-12-09T11:55:21.224Z,89.50
2022-12-09T11:58:00.892Z,89.10
2022-12-09T12:00:34.105Z,89.80
2022-12-09T12:03:15.732Z,89.70
2022-12-09T12:05:54.893Z,89.50
2022-12-09T12:08:46.372Z,89.60
2022-12-09T12:11:18.832Z,89.80
2022-12-09T12:13:50.583Z,89.30
2022-12-09T12:16:46.095Z,89.50
2022-12-09T12:19:19.754Z,89.30
2022-12-09T12:22:05.397Z,88.90
2022-12-09T12:24:50.591Z,89.60
2022-12-09T12:27:45.387Z,89.40
2022-12-09T12:30:19.309Z,89.50
2022-12-09T12:36:32.143Z,90.20
2022-12-09T12:39:25.393Z,89.90
2022-12-09T12:42:19.966Z,89.70
2022-12-09T12:45:32.101Z,90.20
2022-12-09T12:48:09.547Z,91.00
2022-12-09T12:50:54.806Z,91.00
2022-12-09T12:53:39.787Z,91.00
2022-12-09T12:56:16.732Z,91.10
2022-12-09T12:59:08.346Z,91.20
2022-12-09T13:01:46.488Z,91.00
2022-12-09T13:04:22.822Z,91.30
2022-12-09T13:07:26.252Z,91.90
2022-12-09T13:09:57.895Z,92.00
2022-12-09T13:12:54.892Z,92.30
2022-12-09T13:15:44.844Z,92.90
2022-12-09T13:18:21.023Z,93.10
2022-12-09T13:20:59.456Z,93.10
2022-12-09T13:23:28.814Z,93.00
2022-12-09T13:26:20.679Z,93.10
2022-12-09T13:28:48.057Z,93.30
2022-12-09T13:31:19.101Z,92.80
2022-12-09T13:34:18.351Z,93.00
2022-12-09T13:36:47.399Z,93.40
2022-12-09T13:39:39.933Z,93.50
2022-12-09T13:42:46.922Z,93.70
2022-12-09T13:45:25.377Z,93.60
2022-12-09T13:47:55.548Z,93.60
2022-12-09T13:50:22.211Z,93.60
2022-12-09T13:52:58.258Z,93.30
2022-12-09T13:55:49.529Z,92.80
2022-12-09T13:58:34.670Z,93.00
2022-12-09T14:01:32.008Z,93.30
2022-12-09T14:04:16.052Z,93.10
2022-12-09T14:06:45.778Z,92.50
2022-12-09T14:09:37.087Z,92.40
2022-12-09T14:12:06.667Z,93.00
2022-12-09T14:14:33.283Z,92.30
2022-12-09T14:17:17.965Z,92.20
2022-12-09T14:19:53.107Z,92.20
2022-12-09T14:22:20.090Z,92.80
2022-12-09T14:24:51.742Z,93.00
2022-12-09T14:27:31.983Z,93.00
2022-12-09T14:30:24.544Z,92.90
2022-12-09T14:32:51.158Z,93.40
2022-12-09T14:35:31.461Z,93.60
2022-12-09T14:38:16.820Z,93.30
2022-12-09T14:41:15.669Z,93.10
2022-12-09T14:44:16.609Z,92.80
2022-12-09T14:46:54.374Z,92.60
2022-12-09T14:49:25.003Z,92.60
2022-12-09T14:52:01.034Z,92.80
2022-12-09T14:54:34.448Z,92.50
2022-12-09T14:57:20.007Z,92.30
2022-12-09T14:59:52.642Z,92.30
2022-12-09T15:02:25.994Z,92.00
2022-12-09T15:04:54.554Z,92.00
2022-12-09T15:07:25.118Z,92.30
2022-12-09T15:09:53.495Z,92.40
2022-12-09T15:12:32.312Z,91.70
2022-12-09T15:15:26.143Z,91.80
2022-12-09T15:18:04.936Z,91.90
2022-12-09T15:20:36.456Z,92.20
2022-12-09T15:23:16.918Z,91.70
2022-12-09T15:26:07.928Z,91.60
2022-12-09T15:28:37.252Z,91.30
2022-12-09T15:31:07.405Z,91.10
2022-12-09T15:33:45.564Z,91.50
2022-12-09T15:36:17.527Z,91.40
2022-12-09T15:38:50.090Z,91.50
2022-12-09T15:41:36.994Z,91.70
2022-12-09T15:44:08.091Z,91.60
2022-12-09T15:46:39.080Z,91.70
2022-12-09T15:49:08.724Z,91.40
2022-12-09T15:51:40.423Z,91.10
2022-12-09T15:54:11.471Z,91.00
2022-12-09T15:56:56.464Z,91.10
2022-12-09T15:59:56.119Z,91.10
2022-12-09T16:02:27.448Z,91.30
2022-12-09T16:04:57.855Z,91.80
2022-12-09T16:07:25.157Z,91.80
2022-12-09T16:10:07.247Z,91.80
2022-12-09T16:12:35.157Z,91.80
2022-12-09T16:15:04.027Z,91.30
2022-12-09T16:17:34.243Z,91.50
2022-12-09T16:20:33.774Z,91.80
2022-12-09T16:23:02.862Z,92.10
2022-12-09T16:25:36.807Z,92.30
2022-12-09T16:28:06.015Z,91.80
2022-12-09T16:30:43.403Z,91.20
2022-12-09T16:33:19.082Z,90.90
2022-12-09T16:35:56.840Z,91.30
2022-12-09T16:38:23.832Z,91.50
2022-12-09T16:40:53.740Z,91.40
2022-12-09T16:43:25.461Z,91.70
2022-12-09T16:46:17.020Z,92.00
2022-12-09T16:48:47.530Z,92.00
2022-12-09T16:51:17.485Z,92.20
2022-12-09T16:53:47.493Z,92.50
2022-12-09T16:56:26.747Z,92.80
2022-12-09T16:58:54.480Z,93.10
2022-12-09T17:01:25.231Z,93.20
2022-12-09T17:03:57.852Z,93.30
2022-12-09T17:06:24.750Z,92.90
2022-12-09T17:08:51.989Z,92.40
2022-12-09T17:11:21.429Z,92.40
2022-12-09T17:13:49.916Z,92.70
2022-12-09T17:16:17.124Z,92.30
2022-12-09T17:18:43.917Z,92.30
2022-12-09T17:21:13.935Z,92.30
2022-12-09T17:23:41.158Z,92.50
2022-12-09T17:26:13.352Z,92.60
2022-12-09T17:28:41.513Z,92.10
2022-12-09T17:31:14.444Z,92.00
2022-12-09T17:33:41.413Z,92.10
2022-12-09T17:36:08.447Z,92.10
2022-12-09T17:38:35.271Z,92.00
2022-12-09T17:41:07.741Z,91.90
2022-12-09T17:43:35.391Z,91.70
2022-12-09T17:46:04.018Z,91.60
2022-12-09T17:48:32.534Z,91.40
2022-12-09T17:50:59.423Z,91.60
2022-12-09T17:53:26.185Z,91.80
2022-12-09T17:55:52.918Z,91.70
2022-12-09T17:58:19.628Z,91.40
2022-12-09T18:00:47.738Z,91.10
2022-12-09T18:03:27.479Z,91.20
2022-12-09T18:06:01.946Z,91.50
2022-12-09T18:08:29.770Z,91.30
2022-12-09T18:10:56.950Z,91.40
2022-12-09T18:13:23.881Z,91.60
2022-12-09T18:15:54.233Z,91.50
2022-12-09T18:18:21.265Z,91.60
2022-12-09T18:20:47.948Z,91.70
2022-12-09T18:23:14.717Z,91.70
2022-12-09T18:25:42.652Z,91.50
2022-12-09T18:28:09.803Z,91.60
2022-12-09T18:30:38.736Z,91.70
2022-12-09T18:33:05.701Z,91.80
2022-12-09T18:35:32.639Z,91.70
2022-12-09T18:38:06.056Z,91.80
2022-12-09T18:41:00.953Z,91.70
2022-12-09T18:43:33.961Z,91.60
2022-12-09T18:46:06.121Z,91.80
2022-12-09T18:48:32.973Z,91.60
2022-12-09T18:50:59.748Z,92.10
2022-12-09T18:53:26.972Z,91.80
2022-12-09T18:55:53.876Z,91.80
2022-12-09T18:58:36.530Z,91.60
2022-12-09T19:01:24.394Z,91.60
2022-12-09T19:03:53.249Z,91.70
2022-12-09T19:06:37.897Z,92.00
2022-12-09T19:09:07.615Z,91.90
2022-12-09T19:11:36.286Z,91.80
2022-12-09T19:14:04.552Z,91.70
2022-12-09T19:16:31.906Z,91.60
2022-12-09T19:19:03.789Z,91.50
2022-12-09T19:21:34.412Z,91.40
2022-12-09T19:24:01.072Z,91.30
2022-12-09T19:26:30.412Z,91.20
2022-12-09T19:28:59.606Z,91.10
2022-12-09T19:31:38.364Z,91.00
2022-12-09T19:34:08.316Z,91.30
2022-12-09T19:36:35.266Z,91.20
2022-12-09T19:39:03.912Z,91.30
2022-12-09T19:41:30.705Z,91.50
2022-12-09T19:43:59.368Z,91.80
2022-12-09T19:46:27.052Z,92.00
2022-12-09T19:48:55.563Z,92.00
2022-12-09T19:51:24.206Z,92.20
2022-12-09T19:53:57.265Z,91.70
2022-12-09T19:56:24.603Z,91.80
2022-12-09T19:58:51.918Z,91.80
2022-12-09T20:01:30.270Z,92.10
2022-12-09T20:04:25.477Z,92.20
2022-12-09T20:06:53.315Z,92.10
2022-12-09T20:09:24.256Z,92.20
2022-12-09T20:11:52.564Z,92.50
2022-12-09T20:14:19.250Z,92.60
2022-12-09T20:16:45.951Z,92.60
2022-12-09T20:19:12.794Z,92.40
2022-12-09T20:21:40.580Z,92.40
2022-12-09T20:24:08.697Z,92.50
2022-12-09T20:26:37.045Z,92.60
2022-12-09T20:29:10.553Z,92.40
2022-12-09T20:31:38.611Z,91.80
2022-12-09T20:34:13.183Z,91.70
2022-12-09T20:36:41.956Z,92.00
2022-12-09T20:39:16.119Z,91.80
2022-12-09T20:41:44.314Z,91.80
2022-12-09T20:44:12.909Z,91.80
2022-12-09T20:46:40.903Z,91.90
2022-12-09T20:49:09.396Z,92.10
2022-12-09T20:51:39.237Z,92.20
2022-12-09T20:54:07.455Z,92.40
2022-12-09T20:56:35.530Z,92.50
2022-12-09T20:59:02.372Z,92.50
2022-12-09T21:01:34.455Z,92.10
2022-12-09T21:04:02.523Z,92.40
2022-12-09T21:06:32.160Z,91.90
2022-12-09T21:09:08.399Z,91.90
2022-12-09T21:11:36.034Z,92.40
2022-12-09T21:14:04.769Z,92.80
2022-12-09T21:16:34.459Z,93.30
2022-12-09T21:19:05.119Z,93.50
2022-12-09T21:21:34.816Z,93.80
2022-12-09T21:24:01.818Z,93.90
2022-12-09T21:26:28.907Z,93.50
2022-12-09T21:28:56.414Z,93.20
2022-12-09T21:31:26.263Z,92.80
2022-12-09T21:33:55.572Z,92.90
2022-12-09T21:36:28.595Z,93.60
2022-12-09T21:38:55.863Z,93.50
2022-12-09T21:41:27.257Z,93.70
2022-12-09T21:43:55.081Z,93.80
2022-12-09T21:46:28.735Z,93.90
2022-12-09T21:49:02.996Z,94.20
2022-12-09T21:51:30.664Z,94.00
2022-12-09T21:53:57.436Z,93.90
2022-12-09T21:56:27.408Z,93.80
2022-12-09T21:58:56.706Z,93.90
2022-12-09T22:01:26.778Z,93.70
2022-12-09T22:03:54.990Z,93.40
2022-12-09T22:06:22.050Z,93.10
2022-12-09T22:08:49.205Z,92.80
2022-12-09T22:11:22.657Z,93.00
2022-12-09T22:13:49.731Z,92.90
2022-12-09T22:16:22.263Z,93.10
2022-12-09T22:18:50.204Z,93.30
2022-12-09T22:21:28.028Z,93.70
2022-12-09T22:23:58.950Z,93.70
2022-12-09T22:26:26.855Z,93.70
2022-12-09T22:28:53.839Z,93.60
2022-12-09T22:31:24.208Z,92.70
2022-12-09T22:33:52.903Z,92.40
2022-12-09T22:36:20.448Z,92.70
2022-12-09T22:38:47.973Z,93.00
2022-12-09T22:41:17.705Z,93.50
2022-12-09T22:43:44.516Z,93.80
2022-12-09T22:46:14.766Z,94.10
2022-12-09T22:48:42.298Z,94.20
2022-12-09T22:51:14.733Z,93.40
2022-12-09T22:53:41.734Z,92.60
2022-12-09T22:56:09.815Z,93.10
2022-12-09T22:58:36.856Z,93.30
2022-12-09T23:01:09.857Z,93.60
2022-12-09T23:03:36.722Z,93.50
2022-12-09T23:06:03.544Z,93.30
2022-12-09T23:08:30.302Z,93.10
2022-12-09T23:11:02.944Z,93.30
2022-12-09T23:13:30.373Z,92.70
2022-12-09T23:16:01.152Z,92.20
2022-12-09T23:18:30.875Z,92.40
2022-12-09T23:21:03.982Z,92.30
2022-12-09T23:23:31.111Z,92.40
2022-12-09T23:26:06.100Z,92.20
2022-12-09T23:28:40.284Z,92.30
2022-12-09T23:31:09.854Z,92.50
2022-12-09T23:33:37.984Z,92.40
2022-12-09T23:36:10.186Z,92.40
2022-12-09T23:38:37.548Z,92.80
2022-12-09T23:41:04.852Z,93.20
2022-12-09T23:43:32.718Z,93.40
2022-12-09T23:46:06.726Z,93.30
2022-12-09T23:48:35.981Z,93.00
2022-12-09T23:51:20.786Z,92.20
2022-12-09T23:53:49.508Z,91.70
2022-12-09T23:56:18.947Z,91.90
2022-12-09T23:58:46.636Z,92.30
